Time;durP1;ratioP1;P1;durP2;ratioP2;P2;SDS_P1;SDS_P2;PMS_P1;PMS_P2;Temp;Humidity;BMP_temperature;BMP_pressure;BME280_temperature;BME280_humidity;BME280_pressure;Samples;Min_cycle;Max_cycle;Signal;HPM_P1;HPM_P2
2023/12/19 00:00:07;;;;;;;20.93;10.93;;;;;;;7.57;63.90;102023.19;5041494;27;97403;-47
2023/12/19 00:02:32;;;;;;;16.20;11.23;;;;;;;7.58;63.97;102042.00;5040342;27;97331;-47
2023/12/19 00:04:58;;;;;;;18.10;12.10;;;;;;;7.57;63.71;102037.72;5042918;27;97119;-46
2023/12/19 00:07:23;;;;;;;16.80;12.13;;;;;;;7.57;63.81;102034.22;5042308;27;97433;-47
2023/12/19 00:09:49;;;;;;;18.20;11.00;;;;;;;7.52;63.95;102032.06;5042607;27;102553;-47
2023/12/19 00:12:14;;;;;;;16.87;11.83;;;;;;;7.53;63.99;102045.38;5041397;27;97514;-47
2023/12/19 00:14:40;;;;;;;17.90;11.70;;;;;;;7.56;63.93;102032.66;5043118;27;97352;-46
2023/12/19 00:17:05;;;;;;;21.23;13.03;;;;;;;7.56;63.86;102032.66;5041087;27;97398;-47
2023/12/19 00:19:30;;;;;;;16.07;12.20;;;;;;;7.54;63.93;102040.63;5040636;27;102043;-47
2023/12/19 00:21:58;;;;;;;19.80;12.50;;;;;;;7.56;63.93;102051.94;5039576;27;105747;-46
2023/12/19 00:24:24;;;;;;;18.17;13.47;;;;;;;7.55;63.94;102042.91;5038773;27;96648;-46
2023/12/19 00:26:49;;;;;;;15.30;12.10;;;;;;;7.58;64.02;102030.22;5040248;27;103460;-46
2023/12/19 00:29:14;;;;;;;14.70;11.20;;;;;;;7.56;64.06;102014.16;5040416;27;105982;-47
2023/12/19 00:31:40;;;;;;;19.67;12.03;;;;;;;7.60;64.12;102028.53;5040697;27;97144;-47
2023/12/19 00:34:05;;;;;;;16.53;12.53;;;;;;;7.59;63.94;102026.25;5040640;27;105328;-47
2023/12/19 00:36:30;;;;;;;21.53;12.60;;;;;;;7.59;64.12;102024.28;5040530;27;101619;-47
2023/12/19 00:38:56;;;;;;;16.40;13.27;;;;;;;7.56;63.85;102027.94;5041197;27;96922;-47
2023/12/19 00:41:21;;;;;;;17.77;12.10;;;;;;;7.57;63.88;102014.94;5039906;27;96709;-47
2023/12/19 00:43:47;;;;;;;16.10;12.43;;;;;;;7.55;64.06;102017.38;5040959;27;97602;-46
2023/12/19 00:46:12;;;;;;;15.80;12.90;;;;;;;7.54;64.18;102024.09;5039747;27;96950;-46
2023/12/19 00:48:38;;;;;;;18.40;12.33;;;;;;;7.54;64.08;102026.88;5041247;27;96860;-47
2023/12/19 00:51:12;;;;;;;17.93;12.03;;;;;;;7.56;64.01;102032.66;5040622;27;96931;-47
2023/12/19 00:53:38;;;;;;;16.70;11.50;;;;;;;7.52;64.28;102035.59;5039390;27;96930;-46
2023/12/19 00:56:09;;;;;;;19.40;12.43;;;;;;;7.45;64.41;102033.16;5042036;27;97033;-48
2023/12/19 00:58:38;;;;;;;17.10;11.43;;;;;;;7.42;64.40;102031.31;5023743;27;98723;-47
2023/12/19 01:01:07;;;;;;;17.20;12.17;;;;;;;7.39;64.59;102034.22;5041496;27;98588;-47
2023/12/19 01:03:33;;;;;;;16.00;11.17;;;;;;;7.38;64.47;102029.94;5040649;27;97147;-47
2023/12/19 01:06:02;;;;;;;17.30;12.40;;;;;;;7.37;64.57;102029.19;5041188;27;97041;-47
2023/12/19 01:08:28;;;;;;;19.00;12.20;;;;;;;7.38;64.59;102027.19;5040957;27;97296;-46
2023/12/19 01:10:54;;;;;;;18.53;12.70;;;;;;;7.38;64.78;102027.19;5039783;27;97323;-47
2023/12/19 01:13:19;;;;;;;16.50;12.17;;;;;;;7.37;64.84;102026.44;5040519;27;98466;-46
2023/12/19 01:15:45;;;;;;;15.97;10.70;;;;;;;7.36;64.94;102029.63;5037102;27;99965;-47
2023/12/19 01:18:10;;;;;;;16.93;11.87;;;;;;;7.31;64.90;102028.25;5038998;27;96796;-47
2023/12/19 01:20:35;;;;;;;15.27;11.00;;;;;;;7.30;64.79;102023.22;5039579;27;97371;-47
2023/12/19 01:23:01;;;;;;;15.50;10.50;;;;;;;7.25;64.86;102010.84;5039593;27;97206;-46
2023/12/19 01:25:26;;;;;;;15.17;10.80;;;;;;;7.22;65.07;102008.25;5039920;27;100585;-47
2023/12/19 01:27:51;;;;;;;15.10;10.70;;;;;;;7.19;65.06;102009.16;5038233;27;97834;-47
2023/12/19 01:30:16;;;;;;;16.93;11.23;;;;;;;7.18;65.12;101999.38;5039486;27;107136;-48
2023/12/19 01:32:42;;;;;;;15.30;11.10;;;;;;;7.16;65.15;101993.59;5040012;27;96735;-47
2023/12/19 01:35:07;;;;;;;17.60;11.70;;;;;;;7.16;65.25;101997.06;5039916;27;96856;-47
2023/12/19 01:37:33;;;;;;;15.07;10.27;;;;;;;7.14;65.24;101987.78;5038240;27;96847;-47
2023/12/19 01:39:58;;;;;;;17.87;9.33;;;;;;;7.12;65.45;101993.72;5040355;27;96839;-47
2023/12/19 01:42:24;;;;;;;16.73;10.70;;;;;;;7.09;65.42;101991.13;5036712;27;97508;-47
2023/12/19 01:45:10;;;;;;;17.73;10.93;;;;;;;7.08;65.62;101998.63;5038250;27;97092;-47
2023/12/19 01:47:44;;;;;;;16.60;10.80;;;;;;;7.09;65.42;101997.41;5036430;27;97168;-47
2023/12/19 01:50:14;;;;;;;17.63;11.33;;;;;;;7.07;65.37;101995.09;5038395;27;97151;-47
2023/12/19 01:52:57;;;;;;;18.17;11.20;;;;;;;7.05;65.81;101994.78;5036726;27;98520;-47
2023/12/19 01:55:24;;;;;;;15.37;10.60;;;;;;;7.03;65.37;101994.50;5036957;27;96911;-48
2023/12/19 01:57:50;;;;;;;14.57;10.03;;;;;;;7.05;65.64;101983.78;5039401;27;96881;-47
2023/12/19 02:00:16;;;;;;;13.10;9.90;;;;;;;7.04;65.48;101979.53;5034655;27;97146;-47
2023/12/19 02:02:42;;;;;;;13.57;10.17;;;;;;;7.05;65.46;101974.75;5035922;27;96760;-47
2023/12/19 02:05:07;;;;;;;14.57;9.40;;;;;;;7.04;65.44;101962.25;5038186;27;97048;-47
2023/12/19 02:07:33;;;;;;;15.90;11.00;;;;;;;7.00;65.54;101959.66;5040841;27;97652;-47
2023/12/19 02:09:59;;;;;;;13.80;10.33;;;;;;;6.97;65.56;101957.03;5042859;27;97550;-47
2023/12/19 02:12:25;;;;;;;13.40;10.30;;;;;;;6.95;65.71;101952.00;5040833;27;97214;-46
2023/12/19 02:14:51;;;;;;;16.90;12.00;;;;;;;6.93;65.88;101951.69;5040092;27;97562;-47
2023/12/19 02:17:17;;;;;;;15.87;10.67;;;;;;;6.99;65.70;101947.09;5042025;27;97403;-47
2023/12/19 02:19:46;;;;;;;15.10;9.93;;;;;;;7.02;65.61;101943.44;5040046;27;96850;-47
2023/12/19 02:22:11;;;;;;;15.10;10.23;;;;;;;7.00;65.69;101942.38;5040581;27;97628;-47
2023/12/19 02:24:37;;;;;;;13.67;10.07;;;;;;;6.97;65.69;101927.53;5039447;27;96986;-47
2023/12/19 02:27:03;;;;;;;13.97;10.10;;;;;;;6.95;65.84;101932.75;5041859;27;96979;-47
2023/12/19 02:29:28;;;;;;;15.40;11.27;;;;;;;6.98;65.68;101931.06;5035779;27;97028;-47
2023/12/19 02:31:54;;;;;;;14.20;9.70;;;;;;;6.96;65.70;101925.25;5040325;27;98958;-47
2023/12/19 02:34:19;;;;;;;15.77;10.83;;;;;;;6.95;65.71;101923.72;5041911;27;97422;-48
2023/12/19 02:36:44;;;;;;;13.50;10.17;;;;;;;6.93;65.90;101934.44;5041489;27;97422;-47
2023/12/19 02:39:10;;;;;;;13.10;9.30;;;;;;;6.90;66.01;101940.84;5040660;27;97173;-47
2023/12/19 02:41:35;;;;;;;17.43;9.43;;;;;;;6.92;65.97;101941.13;5041579;27;97417;-47
2023/12/19 02:44:01;;;;;;;14.30;10.20;;;;;;;6.91;65.93;101937.63;5040951;27;97200;-47
2023/12/19 02:46:26;;;;;;;11.40;9.10;;;;;;;6.93;66.03;101940.69;5041037;27;101927;-47
2023/12/19 02:48:51;;;;;;;13.00;10.20;;;;;;;6.91;65.90;101929.38;5041444;27;98638;-48
2023/12/19 02:51:18;;;;;;;12.83;9.30;;;;;;;6.89;66.01;101920.06;5039529;27;98477;-47
2023/12/19 02:53:44;;;;;;;12.10;9.33;;;;;;;6.83;65.97;101933.66;5039100;27;96891;-47
2023/12/19 02:56:09;;;;;;;11.83;9.20;;;;;;;6.85;66.22;101914.69;5038549;27;104921;-47
2023/12/19 02:58:34;;;;;;;12.73;9.70;;;;;;;6.82;66.23;101912.88;5038650;27;108271;-47
2023/12/19 03:01:00;;;;;;;12.97;9.63;;;;;;;6.78;66.26;101920.53;5041720;27;97339;-47
2023/12/19 03:03:25;;;;;;;13.07;10.50;;;;;;;6.79;66.11;101907.53;5041165;27;96893;-47
2023/12/19 03:05:50;;;;;;;12.60;9.40;;;;;;;6.76;66.18;101898.22;5040259;27;100955;-47
2023/12/19 03:08:15;;;;;;;12.50;9.50;;;;;;;6.74;66.30;101928.16;5040284;27;109610;-47
2023/12/19 03:10:41;;;;;;;15.07;11.03;;;;;;;6.75;66.34;101898.66;5040027;27;97050;-47
2023/12/19 03:13:06;;;;;;;13.53;10.40;;;;;;;6.75;66.41;101887.66;5040438;27;97002;-48
2023/12/19 03:15:31;;;;;;;16.47;11.50;;;;;;;6.76;66.42;101886.44;5037225;27;96886;-47
2023/12/19 03:17:57;;;;;;;15.47;10.80;;;;;;;6.80;66.33;101876.06;5038998;27;96803;-47
2023/12/19 03:20:22;;;;;;;12.60;10.30;;;;;;;6.82;66.30;101870.84;5040001;27;107368;-47
2023/12/19 03:22:47;;;;;;;12.17;9.43;;;;;;;6.84;66.09;101874.69;5038881;27;96771;-47
2023/12/19 03:25:13;;;;;;;12.37;10.20;;;;;;;6.81;66.33;101870.09;5037395;27;97166;-47
2023/12/19 03:27:38;;;;;;;12.07;9.70;;;;;;;6.80;66.18;101865.06;5038563;27;111260;-47
2023/12/19 03:30:04;;;;;;;12.60;9.73;;;;;;;6.80;66.19;101862.31;5039411;27;97573;-47
2023/12/19 03:32:29;;;;;;;12.50;9.80;;;;;;;6.82;66.36;101865.34;5021941;27;96902;-47
2023/12/19 03:34:54;;;;;;;10.83;9.50;;;;;;;6.81;66.41;101866.59;5040019;27;97503;-47
2023/12/19 03:37:20;;;;;;;14.03;9.80;;;;;;;6.81;66.42;101867.34;5040237;27;96949;-47
2023/12/19 03:39:45;;;;;;;11.57;9.50;;;;;;;6.81;66.39;101861.84;5039099;27;98326;-47
2023/12/19 03:42:10;;;;;;;10.83;9.20;;;;;;;6.80;66.37;101843.81;5040353;27;97449;-48
2023/12/19 03:44:36;;;;;;;11.23;9.57;;;;;;;6.79;66.48;101845.03;5038095;27;102094;-47
2023/12/19 03:47:01;;;;;;;12.40;10.10;;;;;;;6.79;66.58;101845.03;5040447;27;107459;-47
2023/12/19 03:49:26;;;;;;;12.13;9.20;;;;;;;6.80;66.62;101837.53;5039588;27;97125;-48
2023/12/19 03:51:52;;;;;;;12.17;9.60;;;;;;;6.84;66.51;101818.88;5040439;27;97084;-47
2023/12/19 03:54:17;;;;;;;13.10;10.20;;;;;;;6.82;66.49;101807.59;5037715;27;97000;-47
2023/12/19 03:56:42;;;;;;;9.93;8.10;;;;;;;6.81;66.65;101809.56;5039778;27;97112;-47
2023/12/19 03:59:10;;;;;;;11.87;8.87;;;;;;;6.81;66.65;101803.31;5035482;27;97267;-47
2023/12/19 04:01:43;;;;;;;11.20;9.00;;;;;;;6.81;66.61;101806.81;5037816;27;97244;-47
2023/12/19 04:04:08;;;;;;;12.70;8.70;;;;;;;6.79;66.54;101809.28;5038736;27;97227;-48
2023/12/19 04:06:34;;;;;;;9.87;8.63;;;;;;;6.77;66.67;101814.47;5039453;27;103121;-47
2023/12/19 04:08:59;;;;;;;10.00;8.60;;;;;;;6.74;66.59;101798.88;5040567;27;109038;-47
2023/12/19 04:11:24;;;;;;;11.73;8.13;;;;;;;6.74;66.65;101815.38;5036758;27;107500;-47
2023/12/19 04:13:50;;;;;;;10.70;8.47;;;;;;;6.71;66.81;101810.06;5039438;27;97425;-47
2023/12/19 04:16:15;;;;;;;11.03;7.93;;;;;;;6.73;66.64;101813.88;5039830;27;106912;-47
2023/12/19 04:18:40;;;;;;;8.67;7.20;;;;;;;6.78;66.82;101815.25;5039250;27;97363;-47
2023/12/19 04:21:07;;;;;;;10.10;8.07;;;;;;;6.81;66.73;101823.31;5040769;27;103575;-47
2023/12/19 04:24:06;;;;;;;8.63;7.40;;;;;;;6.80;66.88;101801.78;5036783;27;96984;-48
2023/12/19 04:26:32;;;;;;;10.77;7.70;;;;;;;6.78;66.70;101787.75;5036043;27;97628;-48
2023/12/19 04:28:57;;;;;;;8.90;8.00;;;;;;;6.76;66.68;101788.22;5038350;27;97329;-48
2023/12/19 04:31:22;;;;;;;9.40;8.03;;;;;;;6.78;66.72;101779.50;5038918;27;113508;-48
2023/12/19 04:33:48;;;;;;;9.17;7.77;;;;;;;6.76;66.73;101785.47;5039953;27;122228;-47
2023/12/19 04:36:13;;;;;;;11.53;9.10;;;;;;;6.76;66.67;101785.47;5038470;27;110544;-47
2023/12/19 04:38:39;;;;;;;11.37;9.17;;;;;;;6.73;66.71;101780.09;5038137;27;97788;-47
2023/12/19 04:41:05;;;;;;;11.70;9.30;;;;;;;6.74;66.80;101787.88;5042143;27;96869;-48
2023/12/19 04:43:30;;;;;;;10.87;8.87;;;;;;;6.74;66.77;101784.38;5040812;27;97146;-47
2023/12/19 04:45:56;;;;;;;9.93;7.90;;;;;;;6.78;66.72;101785.75;5038531;27;98486;-47
2023/12/19 04:48:21;;;;;;;9.40;8.03;;;;;;;6.80;66.78;101790.78;5034147;27;98336;-47
2023/12/19 04:50:47;;;;;;;11.17;7.77;;;;;;;6.81;66.73;101784.06;5035536;27;110186;-47
2023/12/19 04:53:12;;;;;;;12.30;9.50;;;;;;;6.82;66.74;101780.09;5036560;27;118146;-47
2023/12/19 04:55:37;;;;;;;10.17;8.40;;;;;;;6.82;66.75;101769.09;5040273;27;97631;-47
2023/12/19 04:58:03;;;;;;;8.83;7.93;;;;;;;6.81;66.84;101771.06;5039490;27;107041;-47
2023/12/19 05:00:29;;;;;;;8.27;7.27;;;;;;;6.79;66.72;101767.25;5039985;27;97092;-47
2023/12/19 05:02:54;;;;;;;10.60;7.73;;;;;;;6.79;66.80;101757.00;5038833;27;97469;-48
2023/12/19 05:05:20;;;;;;;8.97;7.57;;;;;;;6.78;66.78;101750.00;5016311;27;98586;-47
2023/12/19 05:07:45;;;;;;;7.83;7.07;;;;;;;6.81;67.00;101749.06;5039018;27;97382;-47
2023/12/19 05:10:11;;;;;;;9.17;7.73;;;;;;;6.82;66.93;101760.81;5038969;27;97307;-47
2023/12/19 05:12:37;;;;;;;9.03;7.70;;;;;;;6.80;66.92;101755.03;5038780;27;97124;-48
2023/12/19 05:15:03;;;;;;;8.03;7.23;;;;;;;6.80;66.98;101758.56;5035448;27;97803;-48
2023/12/19 05:17:28;;;;;;;7.60;6.77;;;;;;;6.77;66.97;101764.97;5038704;27;98876;-47
2023/12/19 05:19:53;;;;;;;9.47;7.33;;;;;;;6.78;67.04;101758.25;5038645;27;108263;-47
2023/12/19 05:22:19;;;;;;;8.27;7.47;;;;;;;6.80;66.98;101753.03;5040172;27;114460;-48
2023/12/19 05:24:44;;;;;;;8.40;7.40;;;;;;;6.84;66.95;101747.38;5039027;27;110161;-48
2023/12/19 05:27:09;;;;;;;10.47;8.23;;;;;;;6.87;67.02;101749.22;5037623;27;124121;-47
2023/12/19 05:29:35;;;;;;;8.90;7.93;;;;;;;6.91;66.71;101734.06;5039486;27;97045;-48
2023/12/19 05:32:00;;;;;;;9.67;8.40;;;;;;;6.89;67.02;101722.00;5041258;27;107171;-47
2023/12/19 05:34:25;;;;;;;9.73;8.00;;;;;;;6.88;66.90;101720.47;5039976;27;116284;-47
2023/12/19 05:36:51;;;;;;;9.83;8.50;;;;;;;6.88;66.84;101706.69;5039667;27;97157;-48
2023/12/19 05:39:19;;;;;;;11.40;9.40;;;;;;;6.88;66.90;101701.19;5040249;27;97232;-47
2023/12/19 05:41:44;;;;;;;10.00;8.80;;;;;;;6.85;66.97;101693.91;5039353;27;97428;-47
2023/12/19 05:44:11;;;;;;;12.43;10.50;;;;;;;6.83;67.08;101686.09;5040058;27;97628;-47
2023/12/19 05:46:38;;;;;;;12.53;9.80;;;;;;;6.83;66.96;101679.84;5039708;27;98468;-47
2023/12/19 05:49:03;;;;;;;12.77;9.50;;;;;;;6.80;67.04;101681.53;5040003;27;97507;-47
2023/12/19 05:51:28;;;;;;;10.80;9.37;;;;;;;6.73;67.07;101687.38;5040828;27;99967;-47
2023/12/19 05:53:54;;;;;;;11.13;9.60;;;;;;;6.70;67.25;101688.28;5039765;27;111225;-47
2023/12/19 05:56:20;;;;;;;10.33;8.83;;;;;;;6.71;67.29;101700.81;5040420;27;97479;-47
2023/12/19 05:58:46;;;;;;;9.70;8.70;;;;;;;6.71;67.22;101697.31;5037054;27;96762;-47
2023/12/19 06:01:12;;;;;;;10.77;9.20;;;;;;;6.70;67.31;101699.28;5039026;27;97128;-47
2023/12/19 06:03:37;;;;;;;12.63;9.83;;;;;;;6.71;67.32;101695.31;5039390;27;97672;-47
2023/12/19 06:06:03;;;;;;;10.03;8.87;;;;;;;6.72;67.25;101696.81;5041368;27;96638;-48
2023/12/19 06:08:29;;;;;;;9.60;8.17;;;;;;;6.77;67.18;101692.69;5040064;27;96811;-47
2023/12/19 06:10:54;;;;;;;10.30;8.57;;;;;;;6.76;67.15;101686.44;5039500;27;97208;-47
2023/12/19 06:13:19;;;;;;;8.73;7.93;;;;;;;6.73;67.21;101692.09;5039891;27;98461;-47
2023/12/19 06:15:45;;;;;;;8.57;7.67;;;;;;;6.73;67.17;101686.59;5038123;27;98384;-47
2023/12/19 06:18:10;;;;;;;9.27;8.37;;;;;;;6.72;67.22;101690.59;5038817;27;101899;-47
2023/12/19 06:20:35;;;;;;;8.70;7.87;;;;;;;6.70;67.11;101682.78;5039452;27;97249;-47
2023/12/19 06:23:01;;;;;;;8.00;7.03;;;;;;;6.70;67.34;101685.53;5037855;27;100818;-47
2023/12/19 06:25:26;;;;;;;7.50;6.70;;;;;;;6.69;67.23;101688.75;5038869;27;99404;-47
2023/12/19 06:27:52;;;;;;;7.07;6.37;;;;;;;6.69;67.30;101686.78;5037203;27;97500;-47
2023/12/19 06:30:17;;;;;;;7.03;6.13;;;;;;;6.70;67.33;101687.53;5038411;27;96827;-47
2023/12/19 06:32:45;;;;;;;6.90;5.80;;;;;;;6.68;67.39;101687.97;5039403;27;97815;-48
2023/12/19 06:35:11;;;;;;;6.17;5.67;;;;;;;6.69;67.35;101684.03;5037952;27;96718;-48
2023/12/19 06:37:36;;;;;;;6.30;5.67;;;;;;;6.69;67.07;101688.75;5036148;27;97152;-47
2023/12/19 06:40:02;;;;;;;5.70;5.30;;;;;;;6.67;67.37;101689.22;5039958;27;97084;-47
2023/12/19 06:42:28;;;;;;;5.67;5.17;;;;;;;6.68;67.38;101690.72;5038112;27;96733;-47
2023/12/19 06:44:53;;;;;;;5.50;5.10;;;;;;;6.68;67.37;101699.00;5038171;27;97307;-47
2023/12/19 06:47:18;;;;;;;5.60;5.10;;;;;;;6.65;67.49;101702.69;5039977;27;97081;-47
2023/12/19 06:49:44;;;;;;;7.23;5.20;;;;;;;6.68;67.39;101701.75;5038900;27;102823;-47
2023/12/19 06:52:09;;;;;;;5.40;4.87;;;;;;;6.70;67.30;101704.78;5040377;27;97424;-47
2023/12/19 06:54:38;;;;;;;6.20;5.60;;;;;;;6.74;67.44;101699.13;5043054;27;97191;-47
2023/12/19 06:57:07;;;;;;;5.93;5.33;;;;;;;6.73;67.46;101690.13;5041524;27;97130;-47
2023/12/19 06:59:33;;;;;;;4.87;4.47;;;;;;;6.73;67.39;101692.88;5043030;27;97154;-47
2023/12/19 07:01:59;;;;;;;5.37;4.70;;;;;;;6.73;67.40;101684.63;5041751;27;101681;-48
2023/12/19 07:04:24;;;;;;;4.27;3.97;;;;;;;6.75;67.47;101675.88;5041209;27;97260;-47
2023/12/19 07:06:49;;;;;;;5.43;4.93;;;;;;;6.76;67.46;101686.44;5041057;27;106961;-48
2023/12/19 07:09:15;;;;;;;4.87;4.47;;;;;;;6.79;67.33;101685.50;5042018;27;97251;-47
2023/12/19 07:11:41;;;;;;;5.10;4.60;;;;;;;6.81;67.30;101682.31;5041792;27;97618;-47
2023/12/19 07:14:07;;;;;;;4.03;3.80;;;;;;;6.84;67.23;101675.84;5041271;27;97242;-47
2023/12/19 07:16:32;;;;;;;4.73;4.43;;;;;;;6.86;67.25;101687.91;5042413;27;96961;-47
2023/12/19 07:18:57;;;;;;;4.40;4.10;;;;;;;6.86;67.28;101682.41;5041144;27;97074;-47
2023/12/19 07:21:24;;;;;;;4.40;4.10;;;;;;;6.83;67.28;101686.09;5041715;27;97307;-47
2023/12/19 07:23:50;;;;;;;4.60;4.20;;;;;;;6.83;67.26;101686.09;5038270;27;97364;-47
2023/12/19 07:26:34;;;;;;;3.67;3.47;;;;;;;6.81;67.53;101676.81;5041476;27;97347;-48
2023/12/19 07:28:59;;;;;;;3.70;3.50;;;;;;;6.79;67.45;101670.97;5040742;27;105203;-47
2023/12/19 07:31:27;;;;;;;3.37;3.17;;;;;;;6.78;67.39;101664.75;5040922;27;99519;-48
2023/12/19 07:34:06;;;;;;;4.27;3.60;;;;;;;6.80;67.61;101658.75;5041972;27;96801;-47
2023/12/19 07:36:32;;;;;;;3.60;3.40;;;;;;;6.79;67.51;101657.22;5041497;27;97248;-47
2023/12/19 07:38:58;;;;;;;4.77;4.00;;;;;;;6.79;67.48;101649.75;5039274;27;97035;-47
2023/12/19 07:41:26;;;;;;;3.80;3.60;;;;;;;6.78;67.55;101640.00;5040364;27;98024;-47
2023/12/19 07:43:55;;;;;;;3.73;3.43;;;;;;;6.78;67.43;101645.50;5041366;27;97104;-47
2023/12/19 07:46:20;;;;;;;3.20;3.00;;;;;;;6.78;67.62;101634.47;5041675;27;97206;-47
2023/12/19 07:48:46;;;;;;;4.57;3.57;;;;;;;6.81;67.59;101630.78;5040716;27;97184;-48
2023/12/19 07:51:18;;;;;;;3.30;3.10;;;;;;;6.84;67.53;101635.38;5039933;27;97542;-47
2023/12/19 07:53:44;;;;;;;3.10;2.90;;;;;;;6.80;67.66;101621.03;5036333;27;97075;-48
2023/12/19 07:56:09;;;;;;;2.80;2.60;;;;;;;6.79;67.71;101619.50;5038444;27;96566;-48
2023/12/19 07:58:34;;;;;;;3.53;3.27;;;;;;;6.84;67.61;101615.34;5041861;27;97214;-47
2023/12/19 08:01:00;;;;;;;3.80;3.50;;;;;;;6.83;67.68;101622.09;5037585;27;112398;-47
2023/12/19 08:03:27;;;;;;;4.40;3.50;;;;;;;6.82;67.55;101607.56;5040683;27;97399;-47
2023/12/19 08:05:55;;;;;;;4.00;3.40;;;;;;;6.82;67.54;101606.78;5038150;27;97600;-47
2023/12/19 08:08:21;;;;;;;3.40;3.10;;;;;;;6.82;67.67;101607.56;5041026;27;97203;-47
2023/12/19 08:10:46;;;;;;;3.73;3.43;;;;;;;6.84;67.58;101596.09;5040378;27;97379;-48
2023/12/19 08:13:12;;;;;;;2.87;2.67;;;;;;;6.83;67.68;101591.84;5040852;27;98551;-47
2023/12/19 08:15:38;;;;;;;3.23;3.03;;;;;;;6.85;67.65;101586.63;5039689;27;97214;-47
2023/12/19 08:18:04;;;;;;;2.70;2.53;;;;;;;6.84;67.69;101587.84;5040388;27;97202;-47
2023/12/19 08:20:29;;;;;;;3.67;2.57;;;;;;;6.89;67.60;101587.97;5040367;27;97096;-47
2023/12/19 08:22:56;;;;;;;3.00;2.80;;;;;;;6.88;67.59;101589.19;5040759;27;110999;-47
2023/12/19 08:25:21;;;;;;;2.73;2.53;;;;;;;6.85;67.67;101589.38;5039910;27;97285;-47
2023/12/19 08:27:46;;;;;;;2.33;2.20;;;;;;;6.88;67.73;101589.19;5039539;27;97338;-47
2023/12/19 08:30:12;;;;;;;2.20;2.10;;;;;;;6.89;67.67;101587.97;5037375;27;107556;-47
2023/12/19 08:32:38;;;;;;;2.20;2.10;;;;;;;6.88;67.53;101589.19;5038796;27;97107;-47
2023/12/19 08:35:05;;;;;;;2.00;1.90;;;;;;;6.92;67.49;101581.50;5040246;27;97019;-47
2023/12/19 08:37:31;;;;;;;2.27;2.17;;;;;;;6.89;67.65;101571.47;5041845;27;96859;-47
2023/12/19 08:39:56;;;;;;;2.00;1.90;;;;;;;6.87;67.74;101557.44;5039038;27;96980;-47
2023/12/19 08:42:22;;;;;;;1.97;1.87;;;;;;;6.87;67.77;101562.94;5039438;27;97055;-47
2023/12/19 08:44:49;;;;;;;1.97;1.87;;;;;;;6.86;67.69;101566.88;5037625;27;96813;-47
2023/12/19 08:47:14;;;;;;;3.10;2.50;;;;;;;6.85;67.76;101556.38;5038834;27;97393;-47
2023/12/19 08:49:43;;;;;;;3.00;2.40;;;;;;;6.89;67.76;101556.94;5040435;27;98757;-47
2023/12/19 08:52:09;;;;;;;2.83;2.37;;;;;;;6.90;67.93;101559.22;5038426;27;96849;-47
2023/12/19 08:54:35;;;;;;;2.07;1.97;;;;;;;6.93;67.74;101558.28;5039226;27;97139;-47
2023/12/19 08:57:00;;;;;;;2.03;1.93;;;;;;;6.94;67.72;101553.56;5038667;27;96660;-47
2023/12/19 08:59:26;;;;;;;2.20;2.10;;;;;;;6.91;67.71;101557.22;5038758;27;108281;-47
2023/12/19 09:01:51;;;;;;;1.63;1.53;;;;;;;6.91;67.89;101554.47;5038314;27;109705;-47
2023/12/19 09:04:17;;;;;;;1.87;1.77;;;;;;;6.93;67.76;101547.28;5040834;27;97697;-47
2023/12/19 09:06:42;;;;;;;1.80;1.70;;;;;;;6.96;67.76;101551.84;5038874;27;97089;-47
2023/12/19 09:09:11;;;;;;;1.43;1.40;;;;;;;6.98;67.81;101543.13;5038892;27;97291;-47
2023/12/19 09:11:37;;;;;;;1.67;1.57;;;;;;;6.97;67.79;101545.13;5040546;27;98331;-47
2023/12/19 09:14:02;;;;;;;1.50;1.40;;;;;;;6.99;67.88;101534.41;5038380;27;97465;-47
2023/12/19 09:16:28;;;;;;;1.90;1.80;;;;;;;7.01;67.85;101529.19;5039229;27;97092;-47
2023/12/19 09:18:54;;;;;;;1.53;1.43;;;;;;;7.02;67.78;101527.19;5037217;27;97028;-47
2023/12/19 09:21:19;;;;;;;4.73;1.40;;;;;;;6.99;67.92;101522.63;5040399;27;97078;-48
2023/12/19 09:23:45;;;;;;;1.43;1.40;;;;;;;7.00;68.06;101544.19;5038092;27;97270;-47
2023/12/19 09:26:10;;;;;;;1.63;1.53;;;;;;;7.03;68.08;101525.97;5038271;27;97465;-47
2023/12/19 09:28:36;;;;;;;1.80;1.70;;;;;;;7.05;68.00;101521.50;5040714;27;97449;-48
2023/12/19 09:31:01;;;;;;;1.40;1.30;;;;;;;7.04;67.91;101514.50;5035986;27;97162;-47
2023/12/19 09:33:28;;;;;;;1.20;1.10;;;;;;;7.05;68.00;101510.50;5038852;27;97521;-47
2023/12/19 09:35:53;;;;;;;1.60;1.50;;;;;;;7.09;67.93;101510.34;5039090;27;96856;-47
2023/12/19 09:38:18;;;;;;;1.40;1.40;;;;;;;7.07;68.06;101510.06;5040348;27;97523;-48
2023/12/19 09:40:44;;;;;;;1.27;1.10;;;;;;;7.05;68.01;101504.22;5038919;27;96679;-47
2023/12/19 09:43:09;;;;;;;1.67;1.30;;;;;;;7.07;68.05;101498.28;5036047;27;97239;-47
2023/12/19 09:45:35;;;;;;;1.20;1.20;;;;;;;7.07;68.09;101490.78;5039304;27;97572;-47
2023/12/19 09:48:02;;;;;;;1.00;1.00;;;;;;;7.07;68.24;101485.28;5039259;27;96711;-47
2023/12/19 09:50:29;;;;;;;1.47;1.37;;;;;;;7.09;68.05;101482.81;5039564;27;98421;-47
2023/12/19 09:52:57;;;;;;;1.00;1.00;;;;;;;7.11;68.05;101485.09;5037578;27;97234;-47
2023/12/19 09:55:25;;;;;;;1.27;0.80;;;;;;;7.11;68.27;101472.09;5038037;27;97090;-47
2023/12/19 09:57:51;;;;;;;0.90;0.90;;;;;;;7.14;68.07;101484.16;5038355;27;97903;-48
2023/12/19 10:00:18;;;;;;;0.77;0.77;;;;;;;7.11;68.39;101479.59;5038092;27;97570;-47
2023/12/19 10:02:44;;;;;;;1.07;1.07;;;;;;;7.14;68.39;101467.66;5038286;27;97451;-47
2023/12/19 10:05:10;;;;;;;1.00;1.00;;;;;;;7.17;68.16;101477.69;5038431;27;96981;-48
2023/12/19 10:07:36;;;;;;;0.70;0.70;;;;;;;7.16;68.13;101465.19;5038474;27;97642;-47
2023/12/19 10:10:02;;;;;;;0.77;0.77;;;;;;;7.16;68.09;101468.66;5037126;27;101120;-47
2023/12/19 10:12:29;;;;;;;0.83;0.83;;;;;;;7.17;68.24;101463.94;5037869;27;96804;-47
2023/12/19 10:15:12;;;;;;;1.00;1.00;;;;;;;7.21;68.40;101461.75;5035779;27;97430;-48
2023/12/19 10:17:38;;;;;;;0.70;0.70;;;;;;;7.16;68.17;101452.16;5038660;27;96807;-48
2023/12/19 10:20:10;;;;;;;1.00;0.90;;;;;;;7.20;68.27;101438.22;5037577;27;97348;-47
2023/12/19 10:22:37;;;;;;;0.60;0.60;;;;;;;7.21;68.33;101437.75;5038292;27;96985;-47
2023/12/19 10:25:03;;;;;;;0.87;0.70;;;;;;;7.23;68.19;101426.25;5037770;27;97185;-47
2023/12/19 10:27:29;;;;;;;1.03;0.70;;;;;;;7.25;68.24;101426.53;5041329;27;97720;-47
2023/12/19 10:30:14;;;;;;;0.77;0.77;;;;;;;7.24;68.54;101416.78;5039008;27;97264;-47
2023/12/19 10:32:40;;;;;;;0.50;0.40;;;;;;;7.22;68.09;101413.75;5041037;27;97175;-47
2023/12/19 10:35:06;;;;;;;8.33;0.60;;;;;;;7.20;68.55;101399.69;5040130;27;97098;-47
2023/12/19 10:37:33;;;;;;;2.03;0.70;;;;;;;7.23;68.32;101398.75;5043158;27;97847;-47
2023/12/19 10:40:14;;;;;;;1.00;0.60;;;;;;;7.27;68.53;101393.81;5041194;27;99258;-47
2023/12/19 10:42:39;;;;;;;0.70;0.70;;;;;;;7.28;68.33;101393.34;5042070;27;97363;-47
2023/12/19 10:45:05;;;;;;;0.80;0.70;;;;;;;7.30;68.31;101387.34;5041417;27;96771;-47
2023/12/19 10:47:31;;;;;;;0.70;0.70;;;;;;;7.32;68.25;101384.88;5040067;27;97655;-47
2023/12/19 10:49:56;;;;;;;2.40;0.63;;;;;;;7.30;68.18;101379.09;5041602;27;97763;-47
2023/12/19 10:52:28;;;;;;;0.70;0.70;;;;;;;7.29;68.34;101381.06;5040721;27;96988;-47
2023/12/19 10:55:08;;;;;;;0.70;0.70;;;;;;;7.32;68.44;101376.63;5042859;27;97444;-47
2023/12/19 10:57:37;;;;;;;0.70;0.70;;;;;;;7.32;68.28;101379.38;5041142;27;96830;-47
2023/12/19 11:00:13;;;;;;;0.80;0.77;;;;;;;7.33;68.37;101376.16;5042185;27;96907;-48
2023/12/19 11:03:16;;;;;;;1.13;0.60;;;;;;;7.30;68.79;101371.59;5043116;27;97155;-47
2023/12/19 11:05:45;;;;;;;0.67;0.60;;;;;;;7.29;68.51;101375.56;5041349;27;96586;-47
2023/12/19 11:08:10;;;;;;;1.47;0.70;;;;;;;7.32;68.46;101362.88;5036644;27;98592;-47
2023/12/19 11:10:39;;;;;;;0.80;0.80;;;;;;;7.34;68.40;101355.66;5040915;27;96842;-47
2023/12/19 11:13:05;;;;;;;2.40;0.80;;;;;;;7.35;68.58;101351.69;5039888;27;96701;-47
2023/12/19 11:15:32;;;;;;;0.90;0.90;;;;;;;7.39;68.52;101340.47;5043212;27;96791;-48
2023/12/19 11:18:20;;;;;;;0.80;0.80;;;;;;;7.43;68.49;101343.75;5041339;27;97107;-47
2023/12/19 11:20:54;;;;;;;0.80;0.80;;;;;;;7.44;68.36;101350.81;5042214;27;98111;-47
2023/12/19 11:23:40;;;;;;;0.90;0.80;;;;;;;7.43;68.72;101321.75;5040171;27;97072;-47